Time;durP1;ratioP1;P1;durP2;ratioP2;P2;SDS_P1;SDS_P2;PMS_P1;PMS_P2;Temp;Humidity;BMP_temperature;BMP_pressure;BME280_temperature;BME280_humidity;BME280_pressure;Samples;Min_cycle;Max_cycle;Signal;HPM_P1;HPM_P2
2022/11/10 00:01:43;;;;;;;2.90;2.70;;;12.20;1.00;;;;;;6286391;28;20316;-53
2022/11/10 00:04:46;;;;;;;3.07;2.87;;;12.30;1.00;;;;;;6285912;28;20248;-53
2022/11/10 00:08:03;;;;;;;3.03;2.73;;;12.30;1.00;;;;;;6290539;28;20263;-54
2022/11/10 00:11:07;;;;;;;3.70;3.30;;;12.40;1.00;;;;;;6303120;28;20237;-52
2022/11/10 00:17:35;;;;;;;4.90;3.83;;;12.40;1.00;;;;;;6293917;28;20245;-52
2022/11/10 00:20:38;;;;;;;2.83;2.63;;;12.40;1.00;;;;;;6284431;28;20359;-53
2022/11/10 00:23:41;;;;;;;3.50;3.20;;;12.40;1.00;;;;;;6284717;28;20233;-54
2022/11/10 00:26:44;;;;;;;3.07;2.87;;;12.40;1.00;;;;;;6286285;28;20237;-54
2022/11/10 00:29:49;;;;;;;4.07;3.10;;;12.40;1.00;;;;;;6299316;28;20232;-53
2022/11/10 00:32:52;;;;;;;3.13;2.93;;;12.40;1.00;;;;;;6309606;28;20236;-54
2022/11/10 00:35:55;;;;;;;3.97;3.33;;;12.50;1.00;;;;;;6305465;28;20885;-54
2022/11/10 00:38:59;;;;;;;3.50;3.20;;;12.50;1.00;;;;;;6304732;28;20233;-54
2022/11/10 00:42:03;;;;;;;3.47;3.10;;;12.50;1.00;;;;;;6299862;28;20229;-53
2022/11/10 00:45:10;;;;;;;3.63;3.30;;;12.50;1.00;;;;;;6298432;28;20859;-53
2022/11/10 00:48:14;;;;;;;4.17;3.13;;;12.50;1.00;;;;;;6290937;28;20241;-53
2022/11/10 00:51:30;;;;;;;3.50;3.30;;;12.50;1.00;;;;;;6290256;28;20249;-55
2022/11/10 00:54:32;;;;;;;4.23;3.53;;;12.50;1.00;;;;;;6284709;28;20641;-53
2022/11/10 00:57:35;;;;;;;3.40;3.07;;;12.60;1.00;;;;;;6303336;28;20617;-53
2022/11/10 01:00:40;;;;;;;4.53;3.77;;;12.60;1.00;;;;;;6304439;28;20252;-53
2022/11/10 01:03:45;;;;;;;5.23;3.20;;;12.60;1.00;;;;;;6283740;28;20241;-53
2022/11/10 01:06:47;;;;;;;3.87;3.10;;;12.60;1.00;;;;;;6285760;28;20621;-55
2022/11/10 01:09:50;;;;;;;3.43;3.13;;;12.70;1.00;;;;;;6301030;28;20363;-53
2022/11/10 01:12:54;;;;;;;3.20;2.93;;;12.70;1.00;;;;;;6300666;28;20431;-53
2022/11/10 01:16:03;;;;;;;3.73;3.00;;;12.70;1.00;;;;;;6286612;28;20244;-53
2022/11/10 01:19:06;;;;;;;3.80;3.30;;;12.70;1.00;;;;;;6282777;28;20391;-53
2022/11/10 01:22:14;;;;;;;8.23;3.47;;;12.70;1.00;;;;;;6286515;28;20237;-53
2022/11/10 01:25:17;;;;;;;5.77;3.23;;;12.70;1.00;;;;;;6308910;28;20235;-53
2022/11/10 01:28:20;;;;;;;4.60;3.33;;;12.70;1.00;;;;;;6308015;28;20240;-53
2022/11/10 01:31:24;;;;;;;3.40;2.90;;;12.70;1.00;;;;;;6309375;28;20240;-53
2022/11/10 01:34:27;;;;;;;3.60;3.13;;;12.70;1.00;;;;;;6285144;28;20241;-54
2022/11/10 01:37:31;;;;;;;5.57;3.40;;;12.70;1.00;;;;;;6285933;28;20280;-54
2022/11/10 01:40:35;;;;;;;5.10;3.17;;;12.60;1.00;;;;;;6296601;28;20716;-54
2022/11/10 01:43:39;;;;;;;2.70;2.60;;;12.60;1.00;;;;;;6299855;28;20326;-53
2022/11/10 01:46:44;;;;;;;3.50;3.30;;;12.60;1.00;;;;;;6309557;28;20260;-52
2022/11/10 01:49:47;;;;;;;3.50;3.30;;;12.60;1.00;;;;;;6297563;28;20347;-54
2022/11/10 01:52:54;;;;;;;3.37;3.20;;;12.70;1.00;;;;;;6282069;28;20247;-53
2022/11/10 01:55:58;;;;;;;3.50;3.30;;;12.60;1.00;;;;;;6284762;28;20237;-54
2022/11/10 01:59:13;;;;;;;3.30;3.07;;;12.50;1.00;;;;;;6282855;28;20235;-52
2022/11/10 02:02:33;;;;;;;3.20;3.00;;;12.50;1.00;;;;;;6283421;28;20248;-53
2022/11/10 02:05:36;;;;;;;5.23;2.90;;;12.40;1.00;;;;;;6282014;28;20659;-53
2022/11/10 02:08:40;;;;;;;3.17;2.97;;;12.40;1.00;;;;;;6295172;28;20780;-52
2022/11/10 02:11:45;;;;;;;3.70;3.30;;;12.40;1.00;;;;;;6292413;28;20249;-53
2022/11/10 02:14:48;;;;;;;4.53;3.10;;;12.40;1.00;;;;;;6296617;28;20255;-53
2022/11/10 02:17:52;;;;;;;4.00;3.20;;;12.30;1.00;;;;;;6307416;28;20236;-53
2022/11/10 02:20:56;;;;;;;3.47;3.07;;;12.30;1.00;;;;;;6306796;28;20256;-53
2022/11/10 02:23:59;;;;;;;4.20;2.93;;;12.30;1.00;;;;;;6285963;28;20430;-53
2022/11/10 02:27:03;;;;;;;5.63;3.67;;;12.20;1.00;;;;;;6282827;28;20233;-54
2022/11/10 02:30:07;;;;;;;3.00;2.90;;;12.20;1.00;;;;;;6282527;28;20717;-56
2022/11/10 02:33:10;;;;;;;4.63;3.60;;;12.20;1.00;;;;;;6282574;28;20245;-54
2022/11/10 02:36:14;;;;;;;3.70;3.30;;;12.20;1.00;;;;;;6282885;28;20233;-53
2022/11/10 02:39:17;;;;;;;4.47;3.10;;;12.20;1.00;;;;;;6298697;28;20288;-53
2022/11/10 02:42:20;;;;;;;4.20;3.03;;;12.30;1.00;;;;;;6308606;28;20233;-53
2022/11/10 02:45:23;;;;;;;5.47;3.17;;;12.30;1.00;;;;;;6287753;28;20245;-57
2022/11/10 02:48:26;;;;;;;3.43;2.73;;;12.30;1.00;;;;;;6289921;28;20455;-53
2022/11/10 02:51:31;;;;;;;4.13;3.13;;;12.30;1.00;;;;;;6292433;28;20260;-53
2022/11/10 02:54:34;;;;;;;3.20;3.00;;;12.30;1.00;;;;;;6288082;28;20248;-52
2022/11/10 02:57:37;;;;;;;3.90;3.00;;;12.30;1.00;;;;;;6287375;28;20233;-53
2022/11/10 03:00:40;;;;;;;5.23;3.57;;;12.40;1.00;;;;;;6287990;28;20244;-55
2022/11/10 03:03:46;;;;;;;4.77;3.30;;;12.40;1.00;;;;;;6277794;28;20244;-53
2022/11/10 03:06:51;;;;;;;3.23;2.97;;;12.40;1.00;;;;;;6289086;28;20237;-54
2022/11/10 03:09:54;;;;;;;3.20;3.00;;;12.50;1.00;;;;;;6295401;28;20236;-54
2022/11/10 03:13:02;;;;;;;3.73;3.20;;;12.50;1.00;;;;;;6302862;28;20236;-54
2022/11/10 03:16:06;;;;;;;3.83;3.50;;;12.50;1.00;;;;;;6313206;28;20229;-53
2022/11/10 03:19:09;;;;;;;3.67;3.37;;;12.50;1.00;;;;;;6291439;28;20236;-54
2022/11/10 03:22:13;;;;;;;4.73;3.60;;;12.50;1.00;;;;;;6285742;28;20233;-54
2022/11/10 03:25:16;;;;;;;5.50;3.20;;;12.50;1.00;;;;;;6286353;28;20237;-53
2022/11/10 03:28:19;;;;;;;6.60;3.70;;;12.50;1.00;;;;;;6286267;28;20244;-53
2022/11/10 03:31:22;;;;;;;4.40;3.70;;;12.40;1.00;;;;;;6286699;28;20237;-54
2022/11/10 03:34:25;;;;;;;5.73;3.87;;;12.50;1.00;;;;;;6286099;28;20245;-53
2022/11/10 03:37:35;;;;;;;3.33;3.07;;;12.50;1.00;;;;;;6289183;28;20709;-57
2022/11/10 03:40:38;;;;;;;4.07;3.13;;;12.40;1.00;;;;;;6294595;28;20468;-53
2022/11/10 03:44:01;;;;;;;4.93;3.20;;;12.40;1.00;;;;;;6303037;28;20249;-53
2022/11/10 03:47:04;;;;;;;4.77;3.50;;;12.40;1.00;;;;;;6291767;28;20255;-53
2022/11/10 03:50:08;;;;;;;9.33;4.27;;;12.30;1.00;;;;;;6285140;28;20229;-52
2022/11/10 03:53:12;;;;;;;3.70;3.50;;;12.30;1.00;;;;;;6286038;28;20599;-53
2022/11/10 03:56:16;;;;;;;4.73;3.60;;;12.30;1.00;;;;;;6286758;28;20244;-58
2022/11/10 03:59:19;;;;;;;3.87;3.40;;;12.30;1.00;;;;;;6286100;28;20243;-54
2022/11/10 04:02:22;;;;;;;5.93;3.90;;;12.30;1.00;;;;;;6286626;28;20237;-53
2022/11/10 04:08:58;;;;;;;5.43;3.60;;;12.20;1.00;;;;;;6310290;28;20231;-52
2022/11/10 04:18:49;;;;;;;6.40;3.50;;;12.10;1.00;;;;;;6298027;27;20229;-54
2022/11/10 04:21:52;;;;;;;3.87;3.53;;;12.10;1.00;;;;;;6296458;28;20229;-54
2022/11/10 04:24:56;;;;;;;5.33;3.40;;;12.10;1.00;;;;;;6285761;28;20229;-54
2022/11/10 04:27:59;;;;;;;7.67;4.00;;;12.10;1.00;;;;;;6282339;28;20232;-53
2022/11/10 04:31:02;;;;;;;5.77;3.60;;;12.00;1.00;;;;;;6291145;28;20282;-53
2022/11/10 04:34:06;;;;;;;4.27;3.90;;;12.00;1.00;;;;;;6289256;28;20293;-55
2022/11/10 04:37:09;;;;;;;7.40;4.40;;;12.00;1.00;;;;;;6303067;28;20435;-52
2022/11/10 04:40:14;;;;;;;7.53;3.90;;;12.00;1.00;;;;;;6300024;28;20240;-53
2022/11/10 04:43:17;;;;;;;4.40;3.90;;;11.90;1.00;;;;;;6306800;28;20656;-52
2022/11/10 04:46:23;;;;;;;4.63;3.63;;;11.90;1.00;;;;;;6306673;28;20240;-53
2022/11/10 04:49:26;;;;;;;8.07;3.90;;;11.90;1.00;;;;;;6297915;28;20228;-52
2022/11/10 04:52:29;;;;;;;5.47;3.77;;;11.80;1.00;;;;;;6287179;28;20709;-52
2022/11/10 04:55:33;;;;;;;4.37;4.07;;;11.80;1.00;;;;;;6290782;28;20463;-51
2022/11/10 04:58:36;;;;;;;3.83;3.50;;;11.80;1.00;;;;;;6298322;28;20233;-53
2022/11/10 05:01:39;;;;;;;5.37;4.10;;;11.80;1.00;;;;;;6299265;28;20237;-53
2022/11/10 05:04:42;;;;;;;4.10;3.60;;;11.80;1.00;;;;;;6297718;27;20241;-54
2022/11/10 05:07:47;;;;;;;5.33;3.60;;;11.70;1.00;;;;;;6290916;28;20228;-57
2022/11/10 05:10:58;;;;;;;6.67;4.33;;;11.60;1.00;;;;;;6284716;28;20637;-53
2022/11/10 05:14:01;;;;;;;5.10;3.90;;;11.50;1.00;;;;;;6289407;28;20240;-54
2022/11/10 05:17:04;;;;;;;5.43;4.00;;;11.50;1.00;;;;;;6305575;28;20235;-52
2022/11/10 05:20:09;;;;;;;6.23;4.53;;;11.40;1.00;;;;;;6304707;28;20228;-53
2022/11/10 05:26:34;;;;;;;7.07;4.33;;;11.40;1.00;;;;;;6297218;28;20418;-54
2022/11/10 05:29:37;;;;;;;6.10;4.20;;;11.30;1.00;;;;;;6300907;28;20240;-53
2022/11/10 05:32:40;;;;;;;6.13;4.30;;;11.20;1.00;;;;;;6292317;28;20233;-53
2022/11/10 05:35:43;;;;;;;4.90;4.00;;;11.20;1.00;;;;;;6301807;28;20736;-53
2022/11/10 05:38:49;;;;;;;6.43;4.20;;;11.20;1.00;;;;;;6302804;28;20232;-52
2022/11/10 05:41:54;;;;;;;7.13;3.87;;;11.20;1.00;;;;;;6291099;28;20241;-53
2022/11/10 05:44:57;;;;;;;5.30;4.43;;;11.20;1.00;;;;;;6305705;28;20767;-53
2022/11/10 05:48:00;;;;;;;4.13;3.80;;;11.20;1.00;;;;;;6288460;28;20687;-57
2022/11/10 05:51:03;;;;;;;4.37;3.97;;;11.20;1.00;;;;;;6289780;28;20282;-52
2022/11/10 05:54:07;;;;;;;10.13;4.77;;;11.20;1.00;;;;;;6299157;28;20709;-55
2022/11/10 05:57:11;;;;;;;5.97;4.17;;;11.20;1.00;;;;;;6295597;28;20248;-52
2022/11/10 06:00:17;;;;;;;5.27;4.00;;;11.10;1.00;;;;;;6279559;28;20237;-53
2022/11/10 06:03:20;;;;;;;9.10;4.70;;;11.10;1.00;;;;;;6301636;28;20240;-52
2022/11/10 06:06:24;;;;;;;5.83;3.93;;;11.10;1.00;;;;;;6303152;28;20564;-53
2022/11/10 06:09:27;;;;;;;6.87;4.43;;;11.10;1.00;;;;;;6298139;28;20765;-53
2022/11/10 06:12:31;;;;;;;5.20;4.80;;;11.00;1.00;;;;;;6292890;28;20236;-52
2022/11/10 06:15:34;;;;;;;6.53;4.60;;;11.10;1.00;;;;;;6287664;28;20243;-54
2022/11/10 06:18:37;;;;;;;6.13;4.30;;;11.00;1.00;;;;;;6295192;28;20235;-53
2022/11/10 06:21:41;;;;;;;6.03;4.23;;;11.00;1.00;;;;;;6290777;28;20856;-54
2022/11/10 06:24:43;;;;;;;10.50;4.10;;;11.10;1.00;;;;;;6300520;28;20251;-53
2022/11/10 06:27:48;;;;;;;9.50;4.40;;;11.10;1.00;;;;;;6291465;28;20236;-53
2022/11/10 06:30:51;;;;;;;5.83;4.60;;;11.10;1.00;;;;;;6293530;28;20237;-54
2022/11/10 06:33:54;;;;;;;5.70;5.00;;;11.00;1.00;;;;;;6293545;28;20237;-52
2022/11/10 06:36:57;;;;;;;8.30;4.97;;;11.00;1.00;;;;;;6287536;28;20229;-54
2022/11/10 06:40:00;;;;;;;7.50;5.27;;;10.90;1.00;;;;;;6294392;28;20663;-53
2022/11/10 06:43:04;;;;;;;8.63;4.53;;;10.90;1.00;;;;;;6293832;28;20244;-53
2022/11/10 06:46:11;;;;;;;7.10;4.43;;;10.90;1.00;;;;;;6294673;28;20247;-53
2022/11/10 06:49:14;;;;;;;6.33;4.80;;;10.90;1.00;;;;;;6299034;28;20233;-53
2022/11/10 06:52:17;;;;;;;9.20;4.60;;;10.90;1.00;;;;;;6291464;28;20247;-54
2022/11/10 06:55:20;;;;;;;7.73;4.77;;;11.00;1.00;;;;;;6295780;28;20279;-54
2022/11/10 06:58:24;;;;;;;5.83;4.63;;;11.00;1.00;;;;;;6286916;28;20229;-53
2022/11/10 07:01:27;;;;;;;7.27;4.47;;;11.00;1.00;;;;;;6295569;28;20240;-54
2022/11/10 07:04:30;;;;;;;5.67;4.67;;;11.00;1.00;;;;;;6300636;28;20622;-54
2022/11/10 07:07:33;;;;;;;6.33;4.70;;;11.00;1.00;;;;;;6286561;28;20242;-52
2022/11/10 07:10:37;;;;;;;7.90;4.83;;;11.00;1.00;;;;;;6290203;28;20232;-52
2022/11/10 07:13:43;;;;;;;7.27;4.50;;;11.00;1.00;;;;;;6293024;28;20236;-52
2022/11/10 07:16:45;;;;;;;7.50;4.73;;;11.10;1.00;;;;;;6291003;28;20609;-60
2022/11/10 07:19:48;;;;;;;6.03;4.30;;;11.20;1.00;;;;;;6297606;28;20233;-53
2022/11/10 07:22:57;;;;;;;5.80;4.73;;;11.30;1.00;;;;;;6288802;28;20237;-53
2022/11/10 07:26:01;;;;;;;10.70;4.60;;;11.30;1.00;;;;;;6294562;28;20234;-54
2022/11/10 07:29:05;;;;;;;9.13;5.20;;;11.40;1.00;;;;;;6280819;28;20240;-53
2022/11/10 07:32:08;;;;;;;6.63;4.87;;;11.40;1.00;;;;;;6300556;28;20598;-53
2022/11/10 07:35:11;;;;;;;10.07;4.60;;;11.50;1.00;;;;;;6301317;28;20245;-54
2022/11/10 07:38:14;;;;;;;7.57;4.00;;;11.50;1.00;;;;;;6304965;28;20232;-53
2022/11/10 07:41:17;;;;;;;8.33;4.77;;;11.50;1.00;;;;;;6300512;28;20302;-52
2022/11/10 07:44:22;;;;;;;7.93;4.50;;;11.50;1.00;;;;;;6305642;28;20614;-53
2022/11/10 07:47:25;;;;;;;7.93;4.83;;;11.50;1.00;;;;;;6299802;28;20256;-55
2022/11/10 07:50:28;;;;;;;10.07;4.80;;;11.50;1.00;;;;;;6283254;28;20237;-53
2022/11/10 07:53:31;;;;;;;6.30;4.63;;;11.50;1.00;;;;;;6288296;28;20730;-53
2022/11/10 07:56:34;;;;;;;9.93;4.90;;;11.50;1.00;;;;;;6296901;28;20237;-54
2022/11/10 07:59:38;;;;;;;7.40;4.63;;;11.50;1.00;;;;;;6299397;28;20243;-53
2022/11/10 08:02:41;;;;;;;8.10;4.97;;;11.50;1.00;;;;;;6283670;28;20267;-53
2022/11/10 08:05:44;;;;;;;14.80;6.73;;;11.60;1.00;;;;;;6304584;28;20631;-52
2022/11/10 08:08:47;;;;;;;9.00;5.50;;;11.60;1.00;;;;;;6299333;28;20233;-52
2022/11/10 08:11:50;;;;;;;10.47;5.77;;;11.70;1.00;;;;;;6295714;28;20244;-52
2022/11/10 08:14:55;;;;;;;9.67;6.70;;;11.80;1.00;;;;;;6290074;28;20237;-52
2022/11/10 08:18:03;;;;;;;9.77;6.00;;;11.90;1.00;;;;;;6298354;28;20228;-59
2022/11/10 08:21:06;;;;;;;13.10;5.30;;;12.10;1.00;;;;;;6293281;28;20702;-54
2022/11/10 08:24:09;;;;;;;11.20;4.50;;;12.10;1.00;;;;;;6301862;28;20246;-53
2022/11/10 08:27:13;;;;;;;7.20;5.30;;;12.20;1.00;;;;;;6302135;28;20275;-55
2022/11/10 08:30:17;;;;;;;12.27;5.30;;;12.20;1.00;;;;;;6297269;28;20255;-53
2022/11/10 08:33:21;;;;;;;5.93;5.30;;;12.30;1.00;;;;;;6290293;28;20284;-53
2022/11/10 08:36:25;;;;;;;7.77;5.40;;;12.40;1.00;;;;;;6305321;28;20588;-54
2022/11/10 08:39:28;;;;;;;6.57;5.87;;;12.40;1.00;;;;;;6294002;28;20233;-54
2022/11/10 08:42:41;;;;;;;6.90;5.47;;;12.50;1.00;;;;;;6300371;28;20241;-53
2022/11/10 08:45:46;;;;;;;12.77;5.47;;;12.60;1.00;;;;;;6285680;28;20239;-54
2022/11/10 08:48:49;;;;;;;10.90;7.20;;;12.70;1.00;;;;;;6296184;28;20236;-53
2022/11/10 08:51:52;;;;;;;16.83;5.63;;;12.70;1.00;;;;;;6305377;28;20233;-53
2022/11/10 08:54:55;;;;;;;10.53;5.63;;;12.70;1.00;;;;;;6292368;28;20248;-53
2022/11/10 08:57:59;;;;;;;11.30;5.40;;;12.80;1.00;;;;;;6300449;28;20225;-53
2022/11/10 09:01:10;;;;;;;9.10;5.57;;;12.80;1.00;;;;;;6302064;28;20240;-53
2022/11/10 09:04:14;;;;;;;10.83;5.50;;;12.80;1.00;;;;;;6287672;28;20403;-53
2022/11/10 09:07:17;;;;;;;8.60;5.37;;;12.90;1.00;;;;;;6299999;28;20238;-54
2022/11/10 09:10:20;;;;;;;11.00;4.77;;;12.90;1.00;;;;;;6301902;28;20785;-52
2022/11/10 09:13:23;;;;;;;10.07;5.33;;;13.10;1.00;;;;;;6303128;28;20233;-53
2022/11/10 09:16:33;;;;;;;10.83;5.50;;;13.20;1.00;;;;;;6298896;28;20713;-53
2022/11/10 09:19:49;;;;;;;11.63;5.20;;;13.30;1.00;;;;;;6297116;28;20248;-54
2022/11/10 09:22:52;;;;;;;6.17;5.00;;;13.30;1.00;;;;;;6300127;28;20264;-55
2022/11/10 09:25:56;;;;;;;8.53;5.00;;;13.50;1.00;;;;;;6299559;28;20260;-52
2022/11/10 09:28:59;;;;;;;9.03;5.87;;;13.50;1.00;;;;;;6296142;28;20304;-53
2022/11/10 09:32:03;;;;;;;7.60;4.80;;;13.40;1.00;;;;;;6301580;28;20232;-53
2022/11/10 09:35:07;;;;;;;10.60;5.17;;;13.40;1.00;;;;;;6302329;28;20240;-54
2022/11/10 09:38:10;;;;;;;9.40;5.27;;;13.40;1.00;;;;;;6295843;28;20247;-54
2022/11/10 09:41:15;;;;;;;9.03;4.73;;;13.40;1.00;;;;;;6299587;28;20472;-54
2022/11/10 09:44:24;;;;;;;12.43;5.10;;;13.50;1.00;;;;;;6294879;28;20721;-54
2022/11/10 09:47:36;;;;;;;11.23;5.50;;;13.50;1.00;;;;;;6288085;28;20603;-53
2022/11/10 09:51:04;;;;;;;7.07;4.63;;;13.60;1.00;;;;;;6285218;28;20264;-55
2022/11/10 09:54:17;;;;;;;8.10;5.77;;;13.60;1.00;;;;;;6303960;27;20717;-53
2022/11/10 09:57:24;;;;;;;12.03;5.97;;;13.60;1.00;;;;;;6296557;28;20867;-53
2022/11/10 10:00:30;;;;;;;14.00;5.33;;;13.60;1.00;;;;;;6296299;28;20631;-53
2022/11/10 10:03:39;;;;;;;6.23;4.40;;;13.60;1.00;;;;;;6286962;28;20252;-59
2022/11/10 10:06:55;;;;;;;14.43;5.67;;;13.60;1.00;;;;;;6284137;28;20552;-52
2022/11/10 10:10:19;;;;;;;8.27;4.57;;;13.70;1.00;;;;;;6299566;28;20243;-53
2022/11/10 10:13:48;;;;;;;11.00;5.43;;;13.70;1.00;;;;;;6289033;28;20237;-54
2022/11/10 10:17:00;;;;;;;6.03;5.17;;;13.70;1.00;;;;;;6288490;28;20268;-53
2022/11/10 10:20:14;;;;;;;10.87;5.47;;;13.70;1.00;;;;;;6293426;28;20233;-53
2022/11/10 10:23:25;;;;;;;10.17;5.00;;;13.70;1.00;;;;;;6287048;28;20406;-53
2022/11/10 10:26:52;;;;;;;7.07;4.67;;;13.70;1.00;;;;;;6295707;28;20251;-53
2022/11/10 10:30:13;;;;;;;7.10;4.73;;;13.70;1.00;;;;;;6288345;28;20235;-54
2022/11/10 10:33:21;;;;;;;13.00;8.17;;;13.70;1.00;;;;;;6295646;28;20422;-52
2022/11/10 10:36:27;;;;;;;10.47;5.30;;;13.70;1.00;;;;;;6297351;28;20874;-53
2022/11/10 10:39:37;;;;;;;13.03;5.30;;;13.80;1.00;;;;;;6285460;28;20239;-53
2022/11/10 10:42:40;;;;;;;10.40;4.40;;;14.00;1.00;;;;;;6297459;28;20236;-53
2022/11/10 10:46:06;;;;;;;7.73;4.60;;;14.00;1.00;;;;;;6292869;28;20239;-53
2022/11/10 10:49:15;;;;;;;9.57;4.67;;;14.10;1.00;;;;;;6295377;28;20467;-54
2022/11/10 10:52:35;;;;;;;8.33;4.77;;;14.20;1.00;;;;;;6300017;28;20240;-55
2022/11/10 10:55:38;;;;;;;8.93;4.63;;;14.30;1.00;;;;;;6302911;28;20229;-53
2022/11/10 10:58:53;;;;;;;10.87;4.70;;;14.40;1.00;;;;;;6286474;28;20233;-55
2022/11/10 11:01:56;;;;;;;6.97;4.30;;;14.40;1.00;;;;;;6305838;27;20510;-54
2022/11/10 11:05:12;;;;;;;8.13;4.30;;;14.40;1.00;;;;;;6308243;28;20224;-53
2022/11/10 11:08:18;;;;;;;7.00;4.47;;;14.40;1.00;;;;;;6296769;28;20610;-55
2022/11/10 11:11:25;;;;;;;5.33;3.80;;;14.30;1.00;;;;;;6304710;28;22565;-54
2022/11/10 11:14:30;;;;;;;12.40;4.53;;;14.30;1.00;;;;;;6285240;28;20225;-54
2022/11/10 11:17:33;;;;;;;9.80;5.07;;;14.20;1.00;;;;;;6296601;28;20239;-54
2022/11/10 11:20:45;;;;;;;10.33;4.73;;;14.10;1.00;;;;;;6298310;28;20233;-54
2022/11/10 11:24:04;;;;;;;8.60;4.40;;;14.10;1.00;;;;;;6299125;28;20236;-54
2022/11/10 11:27:18;;;;;;;8.43;4.50;;;14.10;1.00;;;;;;6295832;28;20726;-55
2022/11/10 11:30:23;;;;;;;7.60;4.50;;;14.30;1.00;;;;;;6307301;27;20237;-54
2022/11/10 11:33:38;;;;;;;9.80;4.23;;;14.30;1.00;;;;;;6300877;28;20233;-54
2022/11/10 11:36:47;;;;;;;6.90;4.00;;;14.40;1.00;;;;;;6305840;28;20229;-58
2022/11/10 11:40:02;;;;;;;6.73;4.17;;;14.50;1.00;;;;;;6295524;28;20237;-53
2022/11/10 11:43:18;;;;;;;7.50;4.17;;;14.50;1.00;;;;;;6296651;28;20402;-54
2022/11/10 11:46:30;;;;;;;14.23;5.37;;;14.60;1.00;;;;;;6286381;28;20769;-53
2022/11/10 11:50:03;;;;;;;8.10;3.87;;;14.70;1.00;;;;;;6300742;28;20233;-53
2022/11/10 11:53:19;;;;;;;7.17;4.67;;;14.70;1.00;;;;;;6280905;28;20280;-53
2022/11/10 11:56:26;;;;;;;7.80;3.93;;;14.70;1.00;;;;;;6297614;28;20264;-52
2022/11/10 12:00:02;;;;;;;6.20;3.80;;;14.70;1.00;;;;;;6302626;28;20230;-54
2022/11/10 12:03:31;;;;;;;7.03;3.77;;;14.60;1.00;;;;;;6295099;28;20287;-55
2022/11/10 12:06:43;;;;;;;9.63;4.30;;;14.70;1.00;;;;;;6279376;28;20260;-54
2022/11/10 12:10:01;;;;;;;7.03;4.30;;;14.80;1.00;;;;;;6306594;28;20415;-53
2022/11/10 12:13:29;;;;;;;8.20;3.93;;;14.80;1.00;;;;;;6285829;28;20236;-53
2022/11/10 12:16:34;;;;;;;8.90;3.73;;;14.60;1.00;;;;;;6298340;28;20391;-55
2022/11/10 12:19:44;;;;;;;13.23;4.50;;;14.60;1.00;;;;;;6293040;28;20229;-53
2022/11/10 12:22:55;;;;;;;7.70;4.17;;;14.50;1.00;;;;;;6290063;28;20234;-54
2022/11/10 12:26:07;;;;;;;10.23;3.50;;;14.40;1.00;;;;;;6295046;28;20248;-55
2022/11/10 12:29:29;;;;;;;8.17;3.97;;;14.50;1.00;;;;;;6296867;28;20244;-53
2022/11/10 12:32:41;;;;;;;6.33;3.50;;;14.40;1.00;;;;;;6306901;28;20393;-53
2022/11/10 12:35:46;;;;;;;6.27;3.87;;;14.50;1.00;;;;;;6297242;28;20622;-54
2022/11/10 12:38:57;;;;;;;10.77;4.27;;;14.60;1.00;;;;;;6295992;28;20750;-53
2022/11/10 12:42:12;;;;;;;6.87;4.07;;;14.60;1.00;;;;;;6295653;28;20225;-55
2022/11/10 12:45:30;;;;;;;8.80;3.80;;;14.60;1.00;;;;;;6289388;28;20244;-53
2022/11/10 12:48:46;;;;;;;7.00;4.40;;;14.60;1.00;;;;;;6302571;28;20235;-54
2022/11/10 12:51:53;;;;;;;8.17;3.73;;;14.70;1.00;;;;;;6288180;28;20237;-54
2022/11/10 12:54:56;;;;;;;6.70;4.20;;;14.80;1.00;;;;;;6303773;28;20240;-54
2022/11/10 12:58:00;;;;;;;7.33;3.90;;;14.80;1.00;;;;;;6303138;28;20237;-54
2022/11/10 13:01:12;;;;;;;9.63;4.07;;;14.70;1.00;;;;;;6297699;28;20237;-52
2022/11/10 13:04:24;;;;;;;8.93;3.80;;;14.70;1.00;;;;;;6288524;28;20237;-55
2022/11/10 13:07:28;;;;;;;6.73;3.60;;;14.70;1.00;;;;;;6289025;27;20244;-53
2022/11/10 13:10:32;;;;;;;8.40;3.90;;;14.70;1.00;;;;;;6302073;28;20262;-55
2022/11/10 13:13:41;;;;;;;8.90;4.00;;;14.80;1.00;;;;;;6302768;28;20235;-55
2022/11/10 13:16:55;;;;;;;7.70;3.63;;;14.80;1.00;;;;;;6285550;28;20264;-54
2022/11/10 13:20:00;;;;;;;6.77;3.33;;;14.80;1.00;;;;;;6293287;28;20241;-52
2022/11/10 13:23:25;;;;;;;8.93;3.70;;;14.80;1.00;;;;;;6285705;28;20248;-52
2022/11/10 13:26:47;;;;;;;4.63;3.43;;;14.80;1.00;;;;;;6297941;28;20233;-53
2022/11/10 13:29:56;;;;;;;5.13;3.70;;;14.80;1.00;;;;;;6298672;28;20690;-54
2022/11/10 13:33:29;;;;;;;4.63;3.53;;;14.90;1.00;;;;;;6299386;28;20237;-54
2022/11/10 13:36:44;;;;;;;6.60;3.57;;;14.90;1.00;;;;;;6292750;28;20240;-54
2022/11/10 13:39:47;;;;;;;4.13;3.60;;;14.90;1.00;;;;;;6303767;28;20721;-54
2022/11/10 13:43:25;;;;;;;8.03;4.10;;;14.80;1.00;;;;;;6301311;28;20240;-53
2022/11/10 13:46:34;;;;;;;3.70;3.40;;;14.80;1.00;;;;;;6299389;28;20244;-54
2022/11/10 13:49:55;;;;;;;9.97;3.57;;;14.80;1.00;;;;;;6297931;28;20237;-54
2022/11/10 13:53:15;;;;;;;9.20;3.73;;;14.80;1.00;;;;;;6292953;28;20729;-53
2022/11/10 13:56:34;;;;;;;11.67;3.70;;;14.90;1.00;;;;;;6288292;28;20275;-53
2022/11/10 13:59:47;;;;;;;7.60;3.77;;;14.80;1.00;;;;;;6295493;28;20757;-55
2022/11/10 14:02:53;;;;;;;8.63;3.70;;;14.70;1.00;;;;;;6302759;28;20272;-53
2022/11/10 14:06:10;;;;;;;7.00;3.57;;;14.70;1.00;;;;;;6296876;28;20256;-54
2022/11/10 14:09:26;;;;;;;9.33;3.47;;;14.70;1.00;;;;;;6288599;28;20234;-54
2022/11/10 14:12:34;;;;;;;6.57;3.30;;;14.70;1.00;;;;;;6296269;28;20433;-54
2022/11/10 14:15:40;;;;;;;4.47;3.17;;;14.70;1.00;;;;;;6292512;28;20235;-54
2022/11/10 14:18:49;;;;;;;9.53;3.87;;;14.70;1.00;;;;;;6291371;28;20237;-54
2022/11/10 14:21:58;;;;;;;7.40;3.60;;;14.60;1.00;;;;;;6289267;28;20236;-53
2022/11/10 14:25:06;;;;;;;6.53;3.67;;;14.50;1.00;;;;;;6297634;28;20248;-55
2022/11/10 14:28:25;;;;;;;7.07;3.47;;;14.40;1.00;;;;;;6291423;28;20623;-55
2022/11/10 14:31:28;;;;;;;8.63;3.47;;;14.40;1.00;;;;;;6297319;28;20866;-54
2022/11/10 14:34:42;;;;;;;8.30;3.50;;;14.30;1.00;;;;;;6294609;28;20237;-52
2022/11/10 14:37:45;;;;;;;6.30;3.47;;;14.30;1.00;;;;;;6297557;28;20241;-54
2022/11/10 14:40:50;;;;;;;4.00;3.60;;;14.30;1.00;;;;;;6302785;28;20226;-53
2022/11/10 14:44:01;;;;;;;4.30;3.60;;;14.20;1.00;;;;;;6290038;28;20228;-54
2022/11/10 14:47:24;;;;;;;3.97;3.47;;;14.10;1.00;;;;;;6292776;28;20229;-59
2022/11/10 14:50:30;;;;;;;5.10;3.67;;;14.00;1.00;;;;;;6289529;28;20729;-53
2022/11/10 14:53:35;;;;;;;4.37;3.43;;;14.00;1.00;;;;;;6302163;28;20233;-54
2022/11/10 14:56:42;;;;;;;5.73;3.30;;;14.00;1.00;;;;;;6285927;28;20230;-54
2022/11/10 14:59:46;;;;;;;6.60;3.90;;;14.00;1.00;;;;;;6286636;28;20677;-56
2022/11/10 15:02:49;;;;;;;5.83;5.27;;;14.00;1.00;;;;;;6298791;28;20248;-56
2022/11/10 15:05:52;;;;;;;8.37;3.90;;;14.00;1.00;;;;;;6296965;28;20525;-54
2022/11/10 15:08:57;;;;;;;7.57;3.77;;;14.00;1.00;;;;;;6291763;28;20236;-54
2022/11/10 15:12:20;;;;;;;5.13;3.33;;;14.00;1.00;;;;;;6308149;28;20249;-54
2022/11/10 15:15:26;;;;;;;7.40;4.03;;;13.90;1.00;;;;;;6291874;28;20241;-53
2022/11/10 15:18:30;;;;;;;7.37;3.37;;;13.80;1.00;;;;;;6300207;28;20620;-54
2022/11/10 15:21:33;;;;;;;6.53;4.03;;;13.70;1.00;;;;;;6289741;28;20619;-53
2022/11/10 15:24:36;;;;;;;5.93;3.70;;;13.70;1.00;;;;;;6294534;28;20248;-57
2022/11/10 15:27:40;;;;;;;5.57;4.03;;;13.70;1.00;;;;;;6299111;28;20228;-53
2022/11/10 15:30:52;;;;;;;6.77;4.00;;;13.60;1.00;;;;;;6299843;28;20236;-55
2022/11/10 15:33:57;;;;;;;5.23;4.00;;;13.60;1.00;;;;;;6300422;28;20237;-53
2022/11/10 15:37:20;;;;;;;7.67;3.80;;;13.60;1.00;;;;;;6300935;28;20835;-54
2022/11/10 15:40:34;;;;;;;7.30;4.00;;;13.50;1.00;;;;;;6300931;28;20294;-54
2022/11/10 15:43:39;;;;;;;6.53;4.03;;;13.50;1.00;;;;;;6301410;28;20244;-53
2022/11/10 15:46:43;;;;;;;7.70;4.13;;;13.40;1.00;;;;;;6300135;28;20224;-53
2022/11/10 15:49:46;;;;;;;10.30;4.20;;;13.30;1.00;;;;;;6283429;28;20237;-53
2022/11/10 15:52:49;;;;;;;13.47;4.47;;;13.30;1.00;;;;;;6295433;28;20253;-53
2022/11/10 15:55:56;;;;;;;8.40;4.17;;;13.30;1.00;;;;;;6297286;28;20673;-53
2022/11/10 15:59:02;;;;;;;6.17;3.40;;;13.20;1.00;;;;;;6304242;28;20245;-53
2022/11/10 16:02:16;;;;;;;5.23;4.00;;;13.10;1.00;;;;;;6293196;28;20245;-53
2022/11/10 16:05:19;;;;;;;6.07;4.47;;;13.10;1.00;;;;;;6288966;28;20233;-54
2022/11/10 16:08:23;;;;;;;7.47;4.27;;;13.00;1.00;;;;;;6290699;28;20359;-54
2022/11/10 16:11:27;;;;;;;6.70;4.20;;;12.90;1.00;;;;;;6298601;28;20236;-54
2022/11/10 16:14:31;;;;;;;8.60;4.60;;;12.80;1.00;;;;;;6291268;28;20703;-55
2022/11/10 16:17:35;;;;;;;7.70;5.03;;;12.80;1.00;;;;;;6286361;28;20236;-54
2022/11/10 16:20:39;;;;;;;8.20;5.50;;;12.70;1.00;;;;;;6291695;28;20233;-55
2022/11/10 16:23:43;;;;;;;6.67;4.90;;;12.70;1.00;;;;;;6291518;28;20264;-54
2022/11/10 16:26:46;;;;;;;10.70;4.80;;;12.60;1.00;;;;;;6293227;28;20221;-53
2022/11/10 16:29:50;;;;;;;6.13;4.80;;;12.50;1.00;;;;;;6287820;28;20849;-55
2022/11/10 16:32:53;;;;;;;8.90;5.30;;;12.50;1.00;;;;;;6295892;28;20236;-55
2022/11/10 16:35:56;;;;;;;4.97;4.57;;;12.40;1.00;;;;;;6286684;28;20233;-55
2022/11/10 16:39:02;;;;;;;7.23;4.67;;;12.40;1.00;;;;;;6298997;28;20725;-54
2022/11/10 16:42:05;;;;;;;10.37;5.40;;;12.30;1.00;;;;;;6297569;28;20652;-54